sensor_id;sensor_type;location;lat;lon;timestamp;pressure;altitude;pressure_sealevel;temperature;humidity
69173;BME280;56280;49.662;8.408;2023-08-06T00:00:18;99793.03;;;18.26;81.55
69173;BME280;56280;49.662;8.408;2023-08-06T00:02:43;99800.72;;;18.29;81.84
69173;BME280;56280;49.662;8.408;2023-08-06T00:05:08;99785.44;;;18.29;81.32
69173;BME280;56280;49.662;8.408;2023-08-06T00:07:33;99771.41;;;18.34;81.35
69173;BME280;56280;49.662;8.408;2023-08-06T00:09:59;99780.81;;;18.45;80.81
69173;BME280;56280;49.662;8.408;2023-08-06T00:12:24;99757.31;;;18.32;80.54
69173;BME280;56280;49.662;8.408;2023-08-06T00:14:53;99766.09;;;18.40;79.89
69173;BME280;56280;49.662;8.408;2023-08-06T00:17:18;99779.59;;;18.47;80.11
69173;BME280;56280;49.662;8.408;2023-08-06T00:19:44;99762.88;;;18.30;79.99
69173;BME280;56280;49.662;8.408;2023-08-06T00:22:09;99764.56;;;18.31;80.00
69173;BME280;56280;49.662;8.408;2023-08-06T00:24:34;99758.56;;;18.29;79.79
69173;BME280;56280;49.662;8.408;2023-08-06T00:27:00;99748.44;;;18.31;79.61
69173;BME280;56280;49.662;8.408;2023-08-06T00:29:25;99743.63;;;18.27;78.85
69173;BME280;56280;49.662;8.408;2023-08-06T00:31:51;99736.13;;;18.22;78.60
69173;BME280;56280;49.662;8.408;2023-08-06T00:34:16;99751.16;;;18.38;78.47
69173;BME280;56280;49.662;8.408;2023-08-06T00:36:41;99745.34;;;18.34;78.29
69173;BME280;56280;49.662;8.408;2023-08-06T00:39:06;99719.56;;;18.18;77.74
69173;BME280;56280;49.662;8.408;2023-08-06T00:41:32;99733.13;;;18.32;77.66
69173;BME280;56280;49.662;8.408;2023-08-06T00:43:57;99697.94;;;18.05;77.72
69173;BME280;56280;49.662;8.408;2023-08-06T00:46:23;99732.69;;;18.28;77.67
69173;BME280;56280;49.662;8.408;2023-08-06T00:48:48;99738.31;;;18.33;77.75
69173;BME280;56280;49.662;8.408;2023-08-06T00:51:15;99734.59;;;18.34;77.44
69173;BME280;56280;49.662;8.408;2023-08-06T00:53:41;99721.50;;;18.25;77.42
69173;BME280;56280;49.662;8.408;2023-08-06T00:56:07;99733.25;;;18.23;77.19
69173;BME280;56280;49.662;8.408;2023-08-06T00:58:32;99733.25;;;18.23;77.32
69173;BME280;56280;49.662;8.408;2023-08-06T01:00:58;99714.19;;;18.18;77.03
69173;BME280;56280;49.662;8.408;2023-08-06T01:03:24;99717.50;;;18.20;76.99
69173;BME280;56280;49.662;8.408;2023-08-06T01:05:50;99714.13;;;18.12;77.15
69173;BME280;56280;49.662;8.408;2023-08-06T01:10:59;99709.81;;;18.17;76.97
69173;BME280;56280;49.662;8.408;2023-08-06T01:16:06;99689.16;;;17.96;76.93
69173;BME280;56280;49.662;8.408;2023-08-06T01:18:32;99701.91;;;18.09;76.64
69173;BME280;56280;49.662;8.408;2023-08-06T01:20:57;99704.59;;;18.09;76.70
69173;BME280;56280;49.662;8.408;2023-08-06T01:23:23;99698.09;;;17.97;76.78
69173;BME280;56280;49.662;8.408;2023-08-06T01:26:10;99677.06;;;17.85;76.90
69173;BME280;56280;49.662;8.408;2023-08-06T01:28:53;99696.16;;;17.91;76.68
69173;BME280;56280;49.662;8.408;2023-08-06T01:31:26;99678.31;;;17.68;76.32
69173;BME280;56280;49.662;8.408;2023-08-06T01:33:53;99692.72;;;17.82;76.80
69173;BME280;56280;49.662;8.408;2023-08-06T01:36:19;99693.09;;;17.79;77.26
69173;BME280;56280;49.662;8.408;2023-08-06T01:38:45;99679.03;;;17.77;76.94
69173;BME280;56280;49.662;8.408;2023-08-06T01:41:11;99681.78;;;17.83;77.01
69173;BME280;56280;49.662;8.408;2023-08-06T01:43:36;99686.41;;;17.90;77.31
69173;BME280;56280;49.662;8.408;2023-08-06T01:46:01;99669.47;;;17.89;76.58
69173;BME280;56280;49.662;8.408;2023-08-06T01:48:26;99671.66;;;18.00;76.24
69173;BME280;56280;49.662;8.408;2023-08-06T01:50:52;99695.50;;;18.10;75.75
69173;BME280;56280;49.662;8.408;2023-08-06T01:53:17;99674.34;;;18.00;76.16
69173;BME280;56280;49.662;8.408;2023-08-06T01:55:47;99679.38;;;18.10;75.36
69173;BME280;56280;49.662;8.408;2023-08-06T01:58:13;99665.13;;;18.10;74.57
69173;BME280;56280;49.662;8.408;2023-08-06T02:00:38;99675.97;;;18.01;74.29
69173;BME280;56280;49.662;8.408;2023-08-06T02:03:03;99675.78;;;18.03;74.42
69173;BME280;56280;49.662;8.408;2023-08-06T02:05:28;99673.09;;;18.03;74.94
69173;BME280;56280;49.662;8.408;2023-08-06T02:07:54;99680.34;;;18.02;75.49
69173;BME280;56280;49.662;8.408;2023-08-06T02:10:19;99682.97;;;17.96;75.57
69173;BME280;56280;49.662;8.408;2023-08-06T02:12:44;99665.41;;;17.78;76.47
69173;BME280;56280;49.662;8.408;2023-08-06T02:15:10;99680.72;;;17.99;75.82
69173;BME280;56280;49.662;8.408;2023-08-06T02:17:35;99645.84;;;17.63;76.53
69173;BME280;56280;49.662;8.408;2023-08-06T02:20:00;99627.69;;;17.65;76.15
69173;BME280;56280;49.662;8.408;2023-08-06T02:22:26;99654.38;;;17.88;76.04
69173;BME280;56280;49.662;8.408;2023-08-06T02:24:51;99644.16;;;17.83;75.99
69173;BME280;56280;49.662;8.408;2023-08-06T02:27:17;99639.16;;;17.80;75.79
69173;BME280;56280;49.662;8.408;2023-08-06T02:29:42;99631.25;;;17.72;76.28
69173;BME280;56280;49.662;8.408;2023-08-06T02:32:07;99643.16;;;17.84;76.24
69173;BME280;56280;49.662;8.408;2023-08-06T02:34:32;99643.84;;;17.72;76.79
69173;BME280;56280;49.662;8.408;2023-08-06T02:36:58;99620.31;;;17.52;77.32
69173;BME280;56280;49.662;8.408;2023-08-06T02:39:23;99639.38;;;17.57;77.37
69173;BME280;56280;49.662;8.408;2023-08-06T02:41:48;99645.38;;;17.59;78.13
69173;BME280;56280;49.662;8.408;2023-08-06T02:44:13;99649.22;;;17.50;78.04
69173;BME280;56280;49.662;8.408;2023-08-06T02:46:39;99643.84;;;17.50;78.02
69173;BME280;56280;49.662;8.408;2023-08-06T02:49:04;99648.22;;;17.73;77.87
69173;BME280;56280;49.662;8.408;2023-08-06T02:51:29;99634.38;;;17.76;76.91
69173;BME280;56280;49.662;8.408;2023-08-06T02:53:55;99652.16;;;17.77;77.13
69173;BME280;56280;49.662;8.408;2023-08-06T02:56:20;99638.09;;;17.75;76.98
69173;BME280;56280;49.662;8.408;2023-08-06T02:58:46;99636.75;;;17.85;76.60
69173;BME280;56280;49.662;8.408;2023-08-06T03:01:11;99627.50;;;17.88;76.62
69173;BME280;56280;49.662;8.408;2023-08-06T03:03:36;99630.44;;;17.93;76.36
69173;BME280;56280;49.662;8.408;2023-08-06T03:06:02;99634.69;;;18.09;75.94
69173;BME280;56280;49.662;8.408;2023-08-06T03:08:28;99609.00;;;18.00;75.77
69173;BME280;56280;49.662;8.408;2023-08-06T03:10:53;99627.31;;;18.11;75.73
69173;BME280;56280;49.662;8.408;2023-08-06T03:13:19;99632.06;;;18.16;75.51
69173;BME280;56280;49.662;8.408;2023-08-06T03:15:55;99623.56;;;18.12;75.26
69173;BME280;56280;49.662;8.408;2023-08-06T03:18:21;99627.72;;;18.15;75.53
69173;BME280;56280;49.662;8.408;2023-08-06T03:20:46;99620.59;;;18.00;75.47
69173;BME280;56280;49.662;8.408;2023-08-06T03:23:11;99608.56;;;17.96;75.74
69173;BME280;56280;49.662;8.408;2023-08-06T03:25:37;99622.03;;;18.03;75.76
69173;BME280;56280;49.662;8.408;2023-08-06T03:28:02;99614.22;;;17.86;75.85
69173;BME280;56280;49.662;8.408;2023-08-06T03:30:27;99619.97;;;17.98;76.04
69173;BME280;56280;49.662;8.408;2023-08-06T03:32:53;99617.19;;;17.92;76.10
69173;BME280;56280;49.662;8.408;2023-08-06T03:35:18;99618.97;;;18.06;75.89
69173;BME280;56280;49.662;8.408;2023-08-06T03:37:43;99612.66;;;17.92;75.78
69173;BME280;56280;49.662;8.408;2023-08-06T03:40:09;99601.19;;;17.83;76.13
69173;BME280;56280;49.662;8.408;2023-08-06T03:42:35;99611.00;;;17.70;75.72
69173;BME280;56280;49.662;8.408;2023-08-06T03:45:00;99623.94;;;17.66;76.61
69173;BME280;56280;49.662;8.408;2023-08-06T03:47:25;99603.75;;;17.48;77.31
69173;BME280;56280;49.662;8.408;2023-08-06T03:49:50;99616.34;;;17.70;77.45
69173;BME280;56280;49.662;8.408;2023-08-06T03:52:16;99591.59;;;17.53;77.56
69173;BME280;56280;49.662;8.408;2023-08-06T03:54:41;99613.84;;;17.46;78.38
69173;BME280;56280;49.662;8.408;2023-08-06T03:57:08;99623.81;;;17.53;79.01
69173;BME280;56280;49.662;8.408;2023-08-06T03:59:33;99615.50;;;17.47;79.80
69173;BME280;56280;49.662;8.408;2023-08-06T04:01:58;99622.84;;;17.39;80.03
69173;BME280;56280;49.662;8.408;2023-08-06T04:04:24;99622.47;;;17.42;80.27
69173;BME280;56280;49.662;8.408;2023-08-06T04:06:49;99612.59;;;17.27;81.06
69173;BME280;56280;49.662;8.408;2023-08-06T04:09:14;99617.56;;;17.45;80.82
69173;BME280;56280;49.662;8.408;2023-08-06T04:11:39;99626.38;;;17.61;80.40
69173;BME280;56280;49.662;8.408;2023-08-06T04:14:05;99620.69;;;17.49;80.39
69173;BME280;56280;49.662;8.408;2023-08-06T04:16:30;99609.38;;;17.54;80.33
69173;BME280;56280;49.662;8.408;2023-08-06T04:18:55;99618.06;;;17.56;79.94
69173;BME280;56280;49.662;8.408;2023-08-06T04:21:20;99620.09;;;17.32;80.46
69173;BME280;56280;49.662;8.408;2023-08-06T04:23:46;99614.84;;;17.24;80.75
69173;BME280;56280;49.662;8.408;2023-08-06T04:26:11;99602.66;;;17.06;80.70
69173;BME280;56280;49.662;8.408;2023-08-06T04:28:36;99613.69;;;17.11;80.63
69173;BME280;56280;49.662;8.408;2023-08-06T04:31:01;99608.03;;;17.06;81.14
69173;BME280;56280;49.662;8.408;2023-08-06T04:33:27;99620.88;;;17.26;80.87
69173;BME280;56280;49.662;8.408;2023-08-06T04:35:55;99631.50;;;17.34;80.81
69173;BME280;56280;49.662;8.408;2023-08-06T04:38:21;99603.59;;;17.35;80.44
69173;BME280;56280;49.662;8.408;2023-08-06T04:40:46;99590.75;;;17.30;80.17
69173;BME280;56280;49.662;8.408;2023-08-06T04:43:11;99609.22;;;17.40;80.02
69173;BME280;56280;49.662;8.408;2023-08-06T04:45:36;99594.91;;;17.33;79.82
69173;BME280;56280;49.662;8.408;2023-08-06T04:48:02;99609.63;;;17.37;80.09
69173;BME280;56280;49.662;8.408;2023-08-06T04:50:27;99605.16;;;17.44;79.96
69173;BME280;56280;49.662;8.408;2023-08-06T04:52:52;99607.91;;;17.29;80.32
69173;BME280;56280;49.662;8.408;2023-08-06T04:55:17;99602.09;;;17.11;80.64
69173;BME280;56280;49.662;8.408;2023-08-06T04:57:43;99616.69;;;17.23;79.75
69173;BME280;56280;49.662;8.408;2023-08-06T05:00:08;99596.09;;;17.09;80.35
69173;BME280;56280;49.662;8.408;2023-08-06T05:02:33;99619.69;;;17.13;80.00
69173;BME280;56280;49.662;8.408;2023-08-06T05:04:59;99603.44;;;17.00;79.50
69173;BME280;56280;49.662;8.408;2023-08-06T05:07:24;99614.50;;;17.12;79.95
69173;BME280;56280;49.662;8.408;2023-08-06T05:09:50;99618.38;;;17.09;80.25
69173;BME280;56280;49.662;8.408;2023-08-06T05:12:15;99609.06;;;16.90;79.70
69173;BME280;56280;49.662;8.408;2023-08-06T05:14:40;99622.94;;;17.09;79.41
69173;BME280;56280;49.662;8.408;2023-08-06T05:17:05;99621.25;;;17.23;79.09
69173;BME280;56280;49.662;8.408;2023-08-06T05:19:31;99609.53;;;17.30;78.78
69173;BME280;56280;49.662;8.408;2023-08-06T05:21:57;99596.78;;;17.33;77.82
69173;BME280;56280;49.662;8.408;2023-08-06T05:24:22;99609.84;;;17.21;77.66
69173;BME280;56280;49.662;8.408;2023-08-06T05:26:47;99618.56;;;17.23;78.20
69173;BME280;56280;49.662;8.408;2023-08-06T05:29:13;99613.38;;;17.06;78.71
69173;BME280;56280;49.662;8.408;2023-08-06T05:31:38;99607.13;;;16.99;78.67
69173;BME280;56280;49.662;8.408;2023-08-06T05:34:03;99625.19;;;17.27;78.48
69173;BME280;56280;49.662;8.408;2023-08-06T05:36:28;99628.22;;;17.39;77.78
69173;BME280;56280;49.662;8.408;2023-08-06T05:38:54;99620.09;;;17.32;78.25
69173;BME280;56280;49.662;8.408;2023-08-06T05:41:19;99614.69;;;17.47;78.24
69173;BME280;56280;49.662;8.408;2023-08-06T05:43:45;99634.50;;;17.67;77.82
69173;BME280;56280;49.662;8.408;2023-08-06T05:46:10;99617.56;;;17.67;78.14
69173;BME280;56280;49.662;8.408;2023-08-06T05:48:36;99628.56;;;17.72;78.25
69173;BME280;56280;49.662;8.408;2023-08-06T05:51:01;99630.16;;;17.66;78.77
69173;BME280;56280;49.662;8.408;2023-08-06T05:53:26;99619.81;;;17.63;78.72
69173;BME280;56280;49.662;8.408;2023-08-06T05:55:52;99619.19;;;17.61;78.60
69173;BME280;56280;49.662;8.408;2023-08-06T05:58:17;99619.41;;;17.45;78.48
69173;BME280;56280;49.662;8.408;2023-08-06T06:00:43;99631.00;;;17.45;78.16
69173;BME280;56280;49.662;8.408;2023-08-06T06:03:08;99630.00;;;17.53;78.67
69173;BME280;56280;49.662;8.408;2023-08-06T06:05:33;99630.81;;;17.68;77.82
69173;BME280;56280;49.662;8.408;2023-08-06T06:07:59;99627.16;;;17.76;77.55
69173;BME280;56280;49.662;8.408;2023-08-06T06:10:24;99596.25;;;17.65;77.53
69173;BME280;56280;49.662;8.408;2023-08-06T06:12:49;99634.56;;;17.53;78.12
69173;BME280;56280;49.662;8.408;2023-08-06T06:15:14;99632.78;;;17.60;77.55
69173;BME280;56280;49.662;8.408;2023-08-06T06:17:40;99612.81;;;17.47;77.15
69173;BME280;56280;49.662;8.408;2023-08-06T06:20:05;99626.19;;;17.62;76.72
69173;BME280;56280;49.662;8.408;2023-08-06T06:22:31;99636.44;;;17.74;76.40
69173;BME280;56280;49.662;8.408;2023-08-06T06:24:56;99617.56;;;17.67;75.89
69173;BME280;56280;49.662;8.408;2023-08-06T06:27:21;99630.22;;;17.73;75.45
69173;BME280;56280;49.662;8.408;2023-08-06T06:29:47;99619.81;;;17.63;75.93
69173;BME280;56280;49.662;8.408;2023-08-06T06:32:12;99630.47;;;17.78;75.36
69173;BME280;56280;49.662;8.408;2023-08-06T06:34:37;99622.75;;;17.90;75.11
69173;BME280;56280;49.662;8.408;2023-08-06T06:37:03;99631.69;;;17.76;75.44
69173;BME280;56280;49.662;8.408;2023-08-06T06:39:28;99651.22;;;18.06;75.97
69173;BME280;56280;49.662;8.408;2023-08-06T06:41:54;99631.81;;;18.11;75.36
69173;BME280;56280;49.662;8.408;2023-08-06T06:44:19;99657.31;;;18.15;75.61
69173;BME280;56280;49.662;8.408;2023-08-06T06:46:45;99645.16;;;18.26;76.02
69173;BME280;56280;49.662;8.408;2023-08-06T06:49:11;99636.63;;;18.15;76.38
69173;BME280;56280;49.662;8.408;2023-08-06T06:51:36;99646.84;;;17.98;77.33
69173;BME280;56280;49.662;8.408;2023-08-06T06:54:01;99641.91;;;18.02;78.04
69173;BME280;56280;49.662;8.408;2023-08-06T06:56:27;99645.84;;;18.06;78.96
69173;BME280;56280;49.662;8.408;2023-08-06T06:58:52;99628.41;;;17.95;79.02
69173;BME280;56280;49.662;8.408;2023-08-06T07:01:17;99646.38;;;17.95;79.46
69173;BME280;56280;49.662;8.408;2023-08-06T07:03:42;99651.78;;;17.80;79.69
69173;BME280;56280;49.662;8.408;2023-08-06T07:06:08;99647.09;;;17.67;80.80
69173;BME280;56280;49.662;8.408;2023-08-06T07:08:33;99643.03;;;17.71;81.04
69173;BME280;56280;49.662;8.408;2023-08-06T07:11:06;99636.03;;;17.77;81.68
69173;BME280;56280;49.662;8.408;2023-08-06T07:13:33;99650.03;;;17.72;81.70
69173;BME280;56280;49.662;8.408;2023-08-06T07:15:59;99622.44;;;17.57;82.35
69173;BME280;56280;49.662;8.408;2023-08-06T07:18:24;99641.53;;;17.68;82.36
69173;BME280;56280;49.662;8.408;2023-08-06T07:20:51;99637.53;;;17.79;82.14
69173;BME280;56280;49.662;8.408;2023-08-06T07:23:17;99644.81;;;17.85;82.34
69173;BME280;56280;49.662;8.408;2023-08-06T07:25:43;99630.28;;;17.80;82.67
69173;BME280;56280;49.662;8.408;2023-08-06T07:28:09;99635.03;;;17.78;82.99
69173;BME280;56280;49.662;8.408;2023-08-06T07:30:38;99647.78;;;17.91;82.67
69173;BME280;56280;49.662;8.408;2023-08-06T07:33:03;99649.81;;;17.89;82.39
69173;BME280;56280;49.662;8.408;2023-08-06T07:35:29;99654.41;;;17.95;82.33
69173;BME280;56280;49.662;8.408;2023-08-06T07:37:54;99651.97;;;18.21;82.03
69173;BME280;56280;49.662;8.408;2023-08-06T07:40:19;99659.13;;;18.36;82.13
69173;BME280;56280;49.662;8.408;2023-08-06T07:42:44;99655.16;;;18.32;80.76
69173;BME280;56280;49.662;8.408;2023-08-06T07:45:10;99647.78;;;18.40;80.53
69173;BME280;56280;49.662;8.408;2023-08-06T07:47:36;99648.63;;;18.48;80.63
69173;BME280;56280;49.662;8.408;2023-08-06T07:50:01;99654.72;;;18.56;80.86
69173;BME280;56280;49.662;8.408;2023-08-06T07:52:26;99648.78;;;18.39;80.17
69173;BME280;56280;49.662;8.408;2023-08-06T07:54:52;99632.03;;;18.37;80.77
69173;BME280;56280;49.662;8.408;2023-08-06T07:57:17;99633.19;;;18.56;80.11
69173;BME280;56280;49.662;8.408;2023-08-06T07:59:42;99648.22;;;18.79;77.95
69173;BME280;56280;49.662;8.408;2023-08-06T08:02:08;99644.22;;;18.97;78.07
69173;BME280;56280;49.662;8.408;2023-08-06T08:04:33;99635.69;;;18.93;76.98
69173;BME280;56280;49.662;8.408;2023-08-06T08:06:58;99641.38;;;19.11;76.54
69173;BME280;56280;49.662;8.408;2023-08-06T08:09:23;99621.91;;;19.09;76.65
69173;BME280;56280;49.662;8.408;2023-08-06T08:11:49;99645.06;;;19.04;75.63
69173;BME280;56280;49.662;8.408;2023-08-06T08:14:15;99640.69;;;18.96;75.44
69173;BME280;56280;49.662;8.408;2023-08-06T08:16:40;99649.28;;;19.20;75.92
69173;BME280;56280;49.662;8.408;2023-08-06T08:19:06;99638.25;;;19.08;74.59
69173;BME280;56280;49.662;8.408;2023-08-06T08:21:31;99634.53;;;19.09;74.63
69173;BME280;56280;49.662;8.408;2023-08-06T08:23:59;99627.56;;;19.28;74.70
69173;BME280;56280;49.662;8.408;2023-08-06T08:26:24;99620.56;;;19.54;74.64
69173;BME280;56280;49.662;8.408;2023-08-06T08:28:52;99637.03;;;19.79;73.64
69173;BME280;56280;49.662;8.408;2023-08-06T08:31:17;99625.63;;;20.10;73.00
69173;BME280;56280;49.662;8.408;2023-08-06T08:33:43;99612.53;;;20.20;71.69
69173;BME280;56280;49.662;8.408;2023-08-06T08:36:08;99619.78;;;20.33;71.71
69173;BME280;56280;49.662;8.408;2023-08-06T08:38:35;99611.31;;;20.43;69.43
69173;BME280;56280;49.662;8.408;2023-08-06T08:41:00;99618.16;;;20.26;69.10
69173;BME280;56280;49.662;8.408;2023-08-06T08:43:26;99621.91;;;20.18;69.15
69173;BME280;56280;49.662;8.408;2023-08-06T08:45:53;99622.50;;;20.33;69.34
69173;BME280;56280;49.662;8.408;2023-08-06T08:48:24;99610.50;;;19.89;69.25
69173;BME280;56280;49.662;8.408;2023-08-06T08:50:50;99603.63;;;20.20;69.16
69173;BME280;56280;49.662;8.408;2023-08-06T08:53:16;99605.50;;;19.79;68.63
69173;BME280;56280;49.662;8.408;2023-08-06T08:55:43;99618.56;;;19.96;68.99
69173;BME280;56280;49.662;8.408;2023-08-06T08:58:09;99570.06;;;19.76;69.12
69173;BME280;56280;49.662;8.408;2023-08-06T09:00:35;99606.56;;;19.98;68.51
69173;BME280;56280;49.662;8.408;2023-08-06T09:03:01;99609.47;;;20.03;68.81
69173;BME280;56280;49.662;8.408;2023-08-06T09:05:28;99606.34;;;19.86;67.47
69173;BME280;56280;49.662;8.408;2023-08-06T09:08:02;99606.28;;;19.66;67.46
69173;BME280;56280;49.662;8.408;2023-08-06T09:10:27;99615.59;;;19.64;68.01
69173;BME280;56280;49.662;8.408;2023-08-06T09:12:53;99597.34;;;19.59;67.94
69173;BME280;56280;49.662;8.408;2023-08-06T09:15:19;99602.38;;;19.69;68.48
69173;BME280;56280;49.662;8.408;2023-08-06T09:17:45;99597.00;;;19.89;67.96
69173;BME280;56280;49.662;8.408;2023-08-06T09:20:12;99603.66;;;20.07;66.85
69173;BME280;56280;49.662;8.408;2023-08-06T09:22:37;99607.38;;;19.99;67.65
69173;BME280;56280;49.662;8.408;2023-08-06T09:25:03;99609.66;;;20.09;66.66
69173;BME280;56280;49.662;8.408;2023-08-06T09:27:31;99601.19;;;19.92;66.14
69173;BME280;56280;49.662;8.408;2023-08-06T09:29:56;99602.41;;;19.76;66.32
69173;BME280;56280;49.662;8.408;2023-08-06T09:32:21;99600.34;;;19.84;66.29
69173;BME280;56280;49.662;8.408;2023-08-06T09:34:46;99586.00;;;20.11;66.00
69173;BME280;56280;49.662;8.408;2023-08-06T09:37:12;99601.16;;;20.12;64.88
69173;BME280;56280;49.662;8.408;2023-08-06T09:39:38;99605.50;;;19.99;64.93
69173;BME280;56280;49.662;8.408;2023-08-06T09:42:04;99609.44;;;20.17;64.62
69173;BME280;56280;49.662;8.408;2023-08-06T09:44:32;99605.75;;;20.04;65.13
69173;BME280;56280;49.662;8.408;2023-08-06T09:46:59;99592.03;;;20.13;65.24
69173;BME280;56280;49.662;8.408;2023-08-06T09:51:59;99603.88;;;19.98;64.91
69173;BME280;56280;49.662;8.408;2023-08-06T09:54:26;99604.50;;;19.87;64.93
69173;BME280;56280;49.662;8.408;2023-08-06T09:56:53;99614.59;;;19.72;65.05
69173;BME280;56280;49.662;8.408;2023-08-06T09:59:18;99622.50;;;19.80;65.22
69173;BME280;56280;49.662;8.408;2023-08-06T10:01:45;99616.94;;;20.01;65.47
69173;BME280;56280;49.662;8.408;2023-08-06T10:04:13;99622.31;;;20.15;64.79
69173;BME280;56280;49.662;8.408;2023-08-06T10:06:42;99622.09;;;20.23;64.66
69173;BME280;56280;49.662;8.408;2023-08-06T10:09:07;99614.41;;;20.47;63.83
69173;BME280;56280;49.662;8.408;2023-08-06T10:11:36;99612.06;;;20.70;62.55
69173;BME280;56280;49.662;8.408;2023-08-06T10:14:18;99626.00;;;20.47;62.17
69173;BME280;56280;49.662;8.408;2023-08-06T10:16:45;99610.22;;;20.51;62.69
69173;BME280;56280;49.662;8.408;2023-08-06T10:19:12;99628.47;;;20.62;61.98
69173;BME280;56280;49.662;8.408;2023-08-06T10:21:39;99615.47;;;20.12;63.00
69173;BME280;56280;49.662;8.408;2023-08-06T10:24:07;99638.09;;;20.18;63.60
69173;BME280;56280;49.662;8.408;2023-08-06T10:26:35;99623.16;;;19.89;65.20
69173;BME280;56280;49.662;8.408;2023-08-06T10:29:01;99636.75;;;19.74;66.04
69173;BME280;56280;49.662;8.408;2023-08-06T10:31:54;99644.81;;;19.47;69.10
69173;BME280;56280;49.662;8.408;2023-08-06T10:34:20;99652.88;;;19.47;70.11
69173;BME280;56280;49.662;8.408;2023-08-06T10:36:46;99660.97;;;19.54;70.87
69173;BME280;56280;49.662;8.408;2023-08-06T10:39:13;99644.84;;;19.74;70.13
69173;BME280;56280;49.662;8.408;2023-08-06T10:41:42;99655.41;;;19.62;68.67
69173;BME280;56280;49.662;8.408;2023-08-06T10:44:11;99659.16;;;19.67;67.51
69173;BME280;56280;49.662;8.408;2023-08-06T10:46:37;99670.94;;;19.60;66.77
69173;BME280;56280;49.662;8.408;2023-08-06T10:49:03;99657.47;;;19.46;66.33
69173;BME280;56280;49.662;8.408;2023-08-06T10:51:29;99667.56;;;19.44;66.28
69173;BME280;56280;49.662;8.408;2023-08-06T10:53:54;99674.22;;;19.42;66.65
69173;BME280;56280;49.662;8.408;2023-08-06T10:56:22;99671.06;;;19.38;66.17
69173;BME280;56280;49.662;8.408;2023-08-06T10:58:48;99679.84;;;19.54;65.75
69173;BME280;56280;49.662;8.408;2023-08-06T11:01:14;99671.47;;;19.28;65.34
69173;BME280;56280;49.662;8.408;2023-08-06T11:03:41;99678.91;;;19.26;65.65
69173;BME280;56280;49.662;8.408;2023-08-06T11:06:07;99678.91;;;19.26;65.08
69173;BME280;56280;49.662;8.408;2023-08-06T11:08:34;99682.16;;;19.08;65.79
69173;BME280;56280;49.662;8.408;2023-08-06T11:11:12;99700.25;;;19.28;66.54
69173;BME280;56280;49.662;8.408;2023-08-06T11:13:39;99707.81;;;19.11;66.85
69173;BME280;56280;49.662;8.408;2023-08-06T11:16:05;99676.94;;;19.00;65.56
69173;BME280;56280;49.662;8.408;2023-08-06T11:18:34;99705.06;;;19.39;65.14
69173;BME280;56280;49.662;8.408;2023-08-06T11:21:00;99701.16;;;19.42;64.22
69173;BME280;56280;49.662;8.408;2023-08-06T11:23:27;99717.53;;;19.47;63.25
69173;BME280;56280;49.662;8.408;2023-08-06T11:25:53;99706.78;;;19.54;64.83
69173;BME280;56280;49.662;8.408;2023-08-06T11:28:19;99695.59;;;19.57;63.58
69173;BME280;56280;49.662;8.408;2023-08-06T11:30:46;99708.28;;;19.63;63.07
69173;BME280;56280;49.662;8.408;2023-08-06T11:33:11;99723.00;;;19.74;62.52
69173;BME280;56280;49.662;8.408;2023-08-06T11:35:37;99718.53;;;19.94;62.46
69173;BME280;56280;49.662;8.408;2023-08-06T11:38:03;99731.88;;;19.61;62.77
69173;BME280;56280;49.662;8.408;2023-08-06T11:40:28;99708.69;;;19.66;62.37
69173;BME280;56280;49.662;8.408;2023-08-06T11:42:53;99727.72;;;19.52;62.70
69173;BME280;56280;49.662;8.408;2023-08-06T11:45:22;99727.31;;;19.61;61.60
69173;BME280;56280;49.662;8.408;2023-08-06T11:47:50;99743.28;;;19.56;61.75
69173;BME280;56280;49.662;8.408;2023-08-06T11:50:27;99735.50;;;19.40;62.00
69173;BME280;56280;49.662;8.408;2023-08-06T11:52:55;99749.28;;;19.17;62.42
69173;BME280;56280;49.662;8.408;2023-08-06T11:55:23;99750.78;;;19.26;61.88
69173;BME280;56280;49.662;8.408;2023-08-06T11:57:49;99765.59;;;19.43;61.52
69173;BME280;56280;49.662;8.408;2023-08-06T12:00:14;99761.66;;;19.11;60.98
69173;BME280;56280;49.662;8.408;2023-08-06T12:02:43;99769.13;;;19.09;61.76
69173;BME280;56280;49.662;8.408;2023-08-06T12:07:38;99755.59;;;18.74;61.09
69173;BME280;56280;49.662;8.408;2023-08-06T12:10:05;99771.63;;;18.82;61.17
69173;BME280;56280;49.662;8.408;2023-08-06T12:12:30;99782.72;;;18.51;60.61
69173;BME280;56280;49.662;8.408;2023-08-06T12:14:56;99786.50;;;18.35;60.87
69173;BME280;56280;49.662;8.408;2023-08-06T12:17:25;99800.03;;;18.63;59.57
69173;BME280;56280;49.662;8.408;2023-08-06T12:19:50;99808.13;;;18.70;60.00
69173;BME280;56280;49.662;8.408;2023-08-06T12:22:15;99805.22;;;18.65;60.65
69173;BME280;56280;49.662;8.408;2023-08-06T12:24:45;99804.81;;;18.68;60.04
69173;BME280;56280;49.662;8.408;2023-08-06T12:27:11;99811.06;;;18.75;59.85
69173;BME280;56280;49.662;8.408;2023-08-06T12:29:40;99773.84;;;18.78;59.35
69173;BME280;56280;49.662;8.408;2023-08-06T12:32:06;99811.88;;;19.25;58.78
69173;BME280;56280;49.662;8.408;2023-08-06T12:34:32;99813.25;;;19.49;58.68
69173;BME280;56280;49.662;8.408;2023-08-06T12:36:57;99802.28;;;19.51;58.49
69173;BME280;56280;49.662;8.408;2023-08-06T12:39:23;99814.34;;;19.55;58.59
69173;BME280;56280;49.662;8.408;2023-08-06T12:41:48;99812.03;;;19.94;58.21
69173;BME280;56280;49.662;8.408;2023-08-06T12:44:14;99820.94;;;19.94;57.37
69173;BME280;56280;49.662;8.408;2023-08-06T12:46:39;99823.22;;;19.84;57.06
69173;BME280;56280;49.662;8.408;2023-08-06T12:49:04;99829.19;;;19.44;57.59
69173;BME280;56280;49.662;8.408;2023-08-06T12:51:30;99836.88;;;19.47;58.49
69173;BME280;56280;49.662;8.408;2023-08-06T12:53:56;99826.91;;;19.48;58.71
69173;BME280;56280;49.662;8.408;2023-08-06T12:56:21;99853.78;;;19.70;58.99
69173;BME280;56280;49.662;8.408;2023-08-06T12:58:46;99855.19;;;19.65;60.18
69173;BME280;56280;49.662;8.408;2023-08-06T13:01:11;99853.25;;;19.81;61.45
69173;BME280;56280;49.662;8.408;2023-08-06T13:03:37;99852.91;;;19.97;61.22